sensor_id;sensor_type;location;lat;lon;timestamp;P1;durP1;ratioP1;P2;durP2;ratioP2
35606;SDS011;21729;58.392;15.656;2023-02-01T00:02:21;4.72;;;2.20;;
35606;SDS011;21729;58.392;15.656;2023-02-01T00:04:48;4.60;;;2.30;;
35606;SDS011;21729;58.392;15.656;2023-02-01T00:07:15;6.72;;;2.20;;
35606;SDS011;21729;58.392;15.656;2023-02-01T00:09:42;6.47;;;2.17;;
35606;SDS011;21729;58.392;15.656;2023-02-01T00:12:09;4.72;;;2.40;;
35606;SDS011;21729;58.392;15.656;2023-02-01T00:14:38;6.97;;;2.30;;
35606;SDS011;21729;58.392;15.656;2023-02-01T00:17:05;5.70;;;2.08;;
35606;SDS011;21729;58.392;15.656;2023-02-01T00:19:33;4.97;;;2.38;;
35606;SDS011;21729;58.392;15.656;2023-02-01T00:22:00;5.95;;;2.40;;
35606;SDS011;21729;58.392;15.656;2023-02-01T00:24:27;6.35;;;2.50;;
35606;SDS011;21729;58.392;15.656;2023-02-01T00:26:55;6.32;;;2.20;;
35606;SDS011;21729;58.392;15.656;2023-02-01T00:29:22;5.50;;;2.42;;
35606;SDS011;21729;58.392;15.656;2023-02-01T00:31:50;4.57;;;2.25;;
35606;SDS011;21729;58.392;15.656;2023-02-01T00:34:18;3.97;;;2.10;;
35606;SDS011;21729;58.392;15.656;2023-02-01T00:36:46;4.32;;;2.42;;
35606;SDS011;21729;58.392;15.656;2023-02-01T00:39:13;5.40;;;2.60;;
35606;SDS011;21729;58.392;15.656;2023-02-01T00:41:41;6.32;;;2.45;;
35606;SDS011;21729;58.392;15.656;2023-02-01T00:44:08;6.50;;;2.30;;
35606;SDS011;21729;58.392;15.656;2023-02-01T00:46:35;6.17;;;2.50;;
35606;SDS011;21729;58.392;15.656;2023-02-01T00:49:04;5.43;;;2.40;;
35606;SDS011;21729;58.392;15.656;2023-02-01T00:51:33;3.78;;;2.47;;
35606;SDS011;21729;58.392;15.656;2023-02-01T00:54:00;4.22;;;2.50;;
35606;SDS011;21729;58.392;15.656;2023-02-01T00:56:28;4.25;;;2.20;;
35606;SDS011;21729;58.392;15.656;2023-02-01T00:58:55;2.50;;;2.28;;
35606;SDS011;21729;58.392;15.656;2023-02-01T01:01:23;3.50;;;2.20;;
35606;SDS011;21729;58.392;15.656;2023-02-01T01:03:53;2.67;;;2.08;;
35606;SDS011;21729;58.392;15.656;2023-02-01T01:06:23;3.38;;;2.33;;
35606;SDS011;21729;58.392;15.656;2023-02-01T01:08:51;2.80;;;1.98;;
35606;SDS011;21729;58.392;15.656;2023-02-01T01:11:20;3.47;;;2.28;;
35606;SDS011;21729;58.392;15.656;2023-02-01T01:13:49;2.40;;;2.03;;
35606;SDS011;21729;58.392;15.656;2023-02-01T01:16:18;2.92;;;2.10;;
35606;SDS011;21729;58.392;15.656;2023-02-01T01:18:46;3.80;;;1.93;;
35606;SDS011;21729;58.392;15.656;2023-02-01T01:21:14;2.35;;;2.15;;
35606;SDS011;21729;58.392;15.656;2023-02-01T01:23:43;1.90;;;1.70;;
35606;SDS011;21729;58.392;15.656;2023-02-01T01:26:12;2.27;;;2.00;;
35606;SDS011;21729;58.392;15.656;2023-02-01T01:28:41;1.97;;;1.70;;
35606;SDS011;21729;58.392;15.656;2023-02-01T01:31:08;2.10;;;1.80;;
35606;SDS011;21729;58.392;15.656;2023-02-01T01:33:36;2.47;;;1.70;;
35606;SDS011;21729;58.392;15.656;2023-02-01T01:36:04;2.30;;;1.70;;
35606;SDS011;21729;58.392;15.656;2023-02-01T01:38:31;1.80;;;1.70;;
35606;SDS011;21729;58.392;15.656;2023-02-01T01:41:00;2.20;;;1.65;;
35606;SDS011;21729;58.392;15.656;2023-02-01T01:46:15;2.30;;;1.70;;
35606;SDS011;21729;58.392;15.656;2023-02-01T01:48:43;1.80;;;1.60;;
35606;SDS011;21729;58.392;15.656;2023-02-01T01:51:11;3.85;;;1.73;;
35606;SDS011;21729;58.392;15.656;2023-02-01T01:53:42;1.45;;;1.35;;
35606;SDS011;21729;58.392;15.656;2023-02-01T01:56:13;1.77;;;1.23;;
35606;SDS011;21729;58.392;15.656;2023-02-01T01:58:40;2.58;;;1.25;;
35606;SDS011;21729;58.392;15.656;2023-02-01T02:01:08;2.77;;;1.23;;
35606;SDS011;21729;58.392;15.656;2023-02-01T02:03:37;3.00;;;1.23;;
35606;SDS011;21729;58.392;15.656;2023-02-01T02:06:09;3.85;;;1.25;;
35606;SDS011;21729;58.392;15.656;2023-02-01T02:08:41;1.50;;;1.25;;
35606;SDS011;21729;58.392;15.656;2023-02-01T02:11:09;2.90;;;1.27;;
35606;SDS011;21729;58.392;15.656;2023-02-01T02:13:42;2.33;;;1.05;;
35606;SDS011;21729;58.392;15.656;2023-02-01T02:16:25;3.72;;;1.30;;
35606;SDS011;21729;58.392;15.656;2023-02-01T02:19:10;1.38;;;0.98;;
35606;SDS011;21729;58.392;15.656;2023-02-01T02:22:04;3.88;;;1.10;;
35606;SDS011;21729;58.392;15.656;2023-02-01T02:24:55;2.72;;;1.10;;
35606;SDS011;21729;58.392;15.656;2023-02-01T02:27:45;2.78;;;1.40;;
35606;SDS011;21729;58.392;15.656;2023-02-01T02:33:21;2.42;;;1.10;;
35606;SDS011;21729;58.392;15.656;2023-02-01T02:36:15;3.53;;;1.40;;
35606;SDS011;21729;58.392;15.656;2023-02-01T02:38:47;2.20;;;1.17;;
35606;SDS011;21729;58.392;15.656;2023-02-01T02:41:20;2.70;;;1.20;;
35606;SDS011;21729;58.392;15.656;2023-02-01T02:44:12;3.23;;;0.97;;
35606;SDS011;21729;58.392;15.656;2023-02-01T02:47:13;2.97;;;1.13;;
35606;SDS011;21729;58.392;15.656;2023-02-01T02:49:51;3.13;;;1.00;;
35606;SDS011;21729;58.392;15.656;2023-02-01T02:52:54;2.78;;;1.10;;
35606;SDS011;21729;58.392;15.656;2023-02-01T02:55:39;2.40;;;1.00;;
35606;SDS011;21729;58.392;15.656;2023-02-01T02:58:07;1.63;;;1.00;;
35606;SDS011;21729;58.392;15.656;2023-02-01T03:00:54;1.38;;;1.08;;
35606;SDS011;21729;58.392;15.656;2023-02-01T03:03:40;2.55;;;1.13;;
35606;SDS011;21729;58.392;15.656;2023-02-01T03:06:27;3.10;;;1.08;;
35606;SDS011;21729;58.392;15.656;2023-02-01T03:08:55;2.70;;;1.17;;
35606;SDS011;21729;58.392;15.656;2023-02-01T03:11:24;4.30;;;1.17;;
35606;SDS011;21729;58.392;15.656;2023-02-01T03:14:13;4.93;;;1.27;;
35606;SDS011;21729;58.392;15.656;2023-02-01T03:16:42;2.63;;;1.20;;
35606;SDS011;21729;58.392;15.656;2023-02-01T03:19:14;3.08;;;1.33;;
35606;SDS011;21729;58.392;15.656;2023-02-01T03:21:47;3.78;;;1.40;;
35606;SDS011;21729;58.392;15.656;2023-02-01T03:24:20;3.88;;;1.30;;
35606;SDS011;21729;58.392;15.656;2023-02-01T03:26:58;2.83;;;1.40;;
35606;SDS011;21729;58.392;15.656;2023-02-01T03:29:34;2.90;;;1.20;;
35606;SDS011;21729;58.392;15.656;2023-02-01T03:32:06;2.15;;;1.10;;
35606;SDS011;21729;58.392;15.656;2023-02-01T03:34:35;4.70;;;1.23;;
35606;SDS011;21729;58.392;15.656;2023-02-01T03:37:04;4.30;;;1.17;;
35606;SDS011;21729;58.392;15.656;2023-02-01T03:39:36;3.45;;;1.10;;
35606;SDS011;21729;58.392;15.656;2023-02-01T03:42:09;2.40;;;1.10;;
35606;SDS011;21729;58.392;15.656;2023-02-01T03:44:41;6.70;;;1.30;;
35606;SDS011;21729;58.392;15.656;2023-02-01T03:47:16;3.00;;;1.02;;
35606;SDS011;21729;58.392;15.656;2023-02-01T03:49:47;5.57;;;1.23;;
35606;SDS011;21729;58.392;15.656;2023-02-01T03:52:22;3.95;;;1.20;;
35606;SDS011;21729;58.392;15.656;2023-02-01T03:54:51;4.38;;;1.27;;
35606;SDS011;21729;58.392;15.656;2023-02-01T03:57:20;4.25;;;1.20;;
35606;SDS011;21729;58.392;15.656;2023-02-01T04:00:03;2.40;;;1.10;;
35606;SDS011;21729;58.392;15.656;2023-02-01T04:02:33;4.15;;;1.15;;
35606;SDS011;21729;58.392;15.656;2023-02-01T04:05:01;3.30;;;1.05;;
35606;SDS011;21729;58.392;15.656;2023-02-01T04:07:29;3.60;;;1.30;;
35606;SDS011;21729;58.392;15.656;2023-02-01T04:09:57;6.65;;;1.13;;
35606;SDS011;21729;58.392;15.656;2023-02-01T04:12:24;7.00;;;1.10;;
35606;SDS011;21729;58.392;15.656;2023-02-01T04:14:51;4.95;;;1.23;;
35606;SDS011;21729;58.392;15.656;2023-02-01T04:17:18;3.70;;;1.30;;
35606;SDS011;21729;58.392;15.656;2023-02-01T04:19:45;7.23;;;1.53;;
35606;SDS011;21729;58.392;15.656;2023-02-01T04:22:12;2.35;;;0.90;;
35606;SDS011;21729;58.392;15.656;2023-02-01T04:24:40;4.73;;;1.20;;
35606;SDS011;21729;58.392;15.656;2023-02-01T04:27:08;4.85;;;1.23;;
35606;SDS011;21729;58.392;15.656;2023-02-01T04:29:35;3.53;;;1.20;;
35606;SDS011;21729;58.392;15.656;2023-02-01T04:32:02;5.65;;;1.05;;
35606;SDS011;21729;58.392;15.656;2023-02-01T04:34:29;4.43;;;1.10;;
35606;SDS011;21729;58.392;15.656;2023-02-01T04:36:56;8.93;;;1.30;;
35606;SDS011;21729;58.392;15.656;2023-02-01T04:39:24;4.82;;;1.20;;
35606;SDS011;21729;58.392;15.656;2023-02-01T04:41:52;4.55;;;1.23;;
35606;SDS011;21729;58.392;15.656;2023-02-01T04:44:19;7.33;;;1.23;;
35606;SDS011;21729;58.392;15.656;2023-02-01T04:46:47;4.25;;;1.23;;
35606;SDS011;21729;58.392;15.656;2023-02-01T04:49:14;4.50;;;1.40;;
35606;SDS011;21729;58.392;15.656;2023-02-01T04:51:42;4.18;;;1.30;;
35606;SDS011;21729;58.392;15.656;2023-02-01T04:54:09;3.00;;;1.20;;
35606;SDS011;21729;58.392;15.656;2023-02-01T04:56:37;2.60;;;1.23;;
35606;SDS011;21729;58.392;15.656;2023-02-01T04:59:06;4.23;;;1.17;;
35606;SDS011;21729;58.392;15.656;2023-02-01T05:01:33;6.32;;;1.35;;
35606;SDS011;21729;58.392;15.656;2023-02-01T05:04:00;4.70;;;1.17;;
35606;SDS011;21729;58.392;15.656;2023-02-01T05:06:27;2.97;;;1.30;;
35606;SDS011;21729;58.392;15.656;2023-02-01T05:08:54;4.60;;;1.20;;
35606;SDS011;21729;58.392;15.656;2023-02-01T05:11:21;7.82;;;1.33;;
35606;SDS011;21729;58.392;15.656;2023-02-01T05:14:07;4.72;;;0.98;;
35606;SDS011;21729;58.392;15.656;2023-02-01T05:16:34;4.07;;;1.13;;
35606;SDS011;21729;58.392;15.656;2023-02-01T05:19:01;1.90;;;0.90;;
35606;SDS011;21729;58.392;15.656;2023-02-01T05:21:28;3.80;;;1.00;;
35606;SDS011;21729;58.392;15.656;2023-02-01T05:23:55;3.97;;;1.00;;
35606;SDS011;21729;58.392;15.656;2023-02-01T05:26:41;3.50;;;1.43;;
35606;SDS011;21729;58.392;15.656;2023-02-01T05:29:10;4.90;;;1.10;;
35606;SDS011;21729;58.392;15.656;2023-02-01T05:31:37;4.43;;;1.20;;
35606;SDS011;21729;58.392;15.656;2023-02-01T05:34:05;3.78;;;1.20;;
35606;SDS011;21729;58.392;15.656;2023-02-01T05:36:33;5.43;;;1.10;;
35606;SDS011;21729;58.392;15.656;2023-02-01T05:39:00;6.80;;;1.38;;
35606;SDS011;21729;58.392;15.656;2023-02-01T05:41:27;4.28;;;1.05;;
35606;SDS011;21729;58.392;15.656;2023-02-01T05:43:54;4.18;;;1.45;;
35606;SDS011;21729;58.392;15.656;2023-02-01T05:46:23;4.23;;;1.10;;
35606;SDS011;21729;58.392;15.656;2023-02-01T05:48:50;5.15;;;1.20;;
35606;SDS011;21729;58.392;15.656;2023-02-01T05:51:17;5.53;;;1.17;;
35606;SDS011;21729;58.392;15.656;2023-02-01T05:53:44;4.13;;;1.17;;
35606;SDS011;21729;58.392;15.656;2023-02-01T05:56:11;4.65;;;1.05;;
35606;SDS011;21729;58.392;15.656;2023-02-01T05:58:38;8.02;;;1.50;;
35606;SDS011;21729;58.392;15.656;2023-02-01T06:01:05;5.27;;;1.57;;
35606;SDS011;21729;58.392;15.656;2023-02-01T06:03:34;5.40;;;1.42;;
35606;SDS011;21729;58.392;15.656;2023-02-01T06:06:01;3.95;;;1.13;;
35606;SDS011;21729;58.392;15.656;2023-02-01T06:08:29;4.68;;;1.02;;
35606;SDS011;21729;58.392;15.656;2023-02-01T06:10:59;6.55;;;1.25;;
35606;SDS011;21729;58.392;15.656;2023-02-01T06:13:27;3.97;;;1.27;;
35606;SDS011;21729;58.392;15.656;2023-02-01T06:15:54;7.63;;;1.35;;
35606;SDS011;21729;58.392;15.656;2023-02-01T06:18:22;7.13;;;1.10;;
35606;SDS011;21729;58.392;15.656;2023-02-01T06:20:53;7.07;;;1.30;;
35606;SDS011;21729;58.392;15.656;2023-02-01T06:23:20;6.43;;;1.23;;
35606;SDS011;21729;58.392;15.656;2023-02-01T06:25:49;5.60;;;1.10;;
35606;SDS011;21729;58.392;15.656;2023-02-01T06:28:17;8.70;;;1.55;;
35606;SDS011;21729;58.392;15.656;2023-02-01T06:30:44;7.57;;;1.60;;
35606;SDS011;21729;58.392;15.656;2023-02-01T06:33:12;7.30;;;1.50;;
35606;SDS011;21729;58.392;15.656;2023-02-01T06:35:40;8.20;;;1.30;;
35606;SDS011;21729;58.392;15.656;2023-02-01T06:38:10;5.70;;;1.50;;
35606;SDS011;21729;58.392;15.656;2023-02-01T06:40:37;6.30;;;1.40;;
35606;SDS011;21729;58.392;15.656;2023-02-01T06:43:05;7.53;;;1.60;;
35606;SDS011;21729;58.392;15.656;2023-02-01T06:45:32;6.43;;;1.42;;
35606;SDS011;21729;58.392;15.656;2023-02-01T06:47:59;8.40;;;1.40;;
35606;SDS011;21729;58.392;15.656;2023-02-01T06:50:26;5.47;;;1.65;;
35606;SDS011;21729;58.392;15.656;2023-02-01T06:52:53;9.93;;;1.53;;
35606;SDS011;21729;58.392;15.656;2023-02-01T06:55:23;5.80;;;1.30;;
35606;SDS011;21729;58.392;15.656;2023-02-01T06:57:52;7.95;;;1.75;;
35606;SDS011;21729;58.392;15.656;2023-02-01T07:00:20;9.43;;;1.30;;
35606;SDS011;21729;58.392;15.656;2023-02-01T07:02:48;7.63;;;1.35;;
35606;SDS011;21729;58.392;15.656;2023-02-01T07:05:16;9.57;;;1.90;;
35606;SDS011;21729;58.392;15.656;2023-02-01T07:07:43;10.37;;;1.60;;
35606;SDS011;21729;58.392;15.656;2023-02-01T07:10:11;7.57;;;1.70;;
35606;SDS011;21729;58.392;15.656;2023-02-01T07:12:39;8.63;;;1.40;;
35606;SDS011;21729;58.392;15.656;2023-02-01T07:15:07;10.55;;;1.77;;
35606;SDS011;21729;58.392;15.656;2023-02-01T07:17:34;7.28;;;1.70;;
35606;SDS011;21729;58.392;15.656;2023-02-01T07:20:01;8.55;;;1.90;;
35606;SDS011;21729;58.392;15.656;2023-02-01T07:22:28;9.13;;;1.50;;
35606;SDS011;21729;58.392;15.656;2023-02-01T07:24:55;6.95;;;1.65;;
35606;SDS011;21729;58.392;15.656;2023-02-01T07:27:22;8.98;;;1.60;;
35606;SDS011;21729;58.392;15.656;2023-02-01T07:29:52;8.77;;;1.50;;
35606;SDS011;21729;58.392;15.656;2023-02-01T07:32:20;10.00;;;1.90;;
35606;SDS011;21729;58.392;15.656;2023-02-01T07:34:47;11.80;;;1.73;;
35606;SDS011;21729;58.392;15.656;2023-02-01T07:37:14;9.85;;;1.42;;
35606;SDS011;21729;58.392;15.656;2023-02-01T07:39:41;7.15;;;1.90;;
35606;SDS011;21729;58.392;15.656;2023-02-01T07:42:09;8.48;;;1.65;;
35606;SDS011;21729;58.392;15.656;2023-02-01T07:44:36;9.35;;;1.60;;
35606;SDS011;21729;58.392;15.656;2023-02-01T07:47:04;6.95;;;1.48;;
35606;SDS011;21729;58.392;15.656;2023-02-01T07:49:31;8.55;;;1.70;;
35606;SDS011;21729;58.392;15.656;2023-02-01T07:51:58;9.48;;;1.73;;
35606;SDS011;21729;58.392;15.656;2023-02-01T07:54:26;6.68;;;1.65;;
35606;SDS011;21729;58.392;15.656;2023-02-01T07:56:53;6.88;;;1.60;;
35606;SDS011;21729;58.392;15.656;2023-02-01T07:59:20;9.20;;;1.73;;
35606;SDS011;21729;58.392;15.656;2023-02-01T08:01:47;12.85;;;2.17;;
35606;SDS011;21729;58.392;15.656;2023-02-01T08:04:15;10.07;;;1.77;;
35606;SDS011;21729;58.392;15.656;2023-02-01T08:06:42;7.93;;;1.40;;
35606;SDS011;21729;58.392;15.656;2023-02-01T08:09:09;8.77;;;1.70;;
35606;SDS011;21729;58.392;15.656;2023-02-01T08:11:37;9.20;;;1.95;;
35606;SDS011;21729;58.392;15.656;2023-02-01T08:14:04;11.60;;;1.92;;
35606;SDS011;21729;58.392;15.656;2023-02-01T08:16:32;9.85;;;2.13;;
35606;SDS011;21729;58.392;15.656;2023-02-01T08:19:02;9.18;;;1.98;;
35606;SDS011;21729;58.392;15.656;2023-02-01T08:21:30;9.85;;;1.77;;
35606;SDS011;21729;58.392;15.656;2023-02-01T08:24:03;7.90;;;1.50;;
35606;SDS011;21729;58.392;15.656;2023-02-01T08:26:31;8.67;;;1.90;;
35606;SDS011;21729;58.392;15.656;2023-02-01T08:28:59;9.80;;;1.60;;
35606;SDS011;21729;58.392;15.656;2023-02-01T08:31:28;10.05;;;1.90;;
35606;SDS011;21729;58.392;15.656;2023-02-01T08:33:57;8.43;;;1.85;;
35606;SDS011;21729;58.392;15.656;2023-02-01T08:36:26;6.53;;;1.52;;
35606;SDS011;21729;58.392;15.656;2023-02-01T08:38:55;6.72;;;1.85;;
35606;SDS011;21729;58.392;15.656;2023-02-01T08:41:24;7.80;;;1.95;;
35606;SDS011;21729;58.392;15.656;2023-02-01T08:43:53;9.68;;;2.03;;
35606;SDS011;21729;58.392;15.656;2023-02-01T08:46:21;9.33;;;2.00;;
35606;SDS011;21729;58.392;15.656;2023-02-01T08:48:48;10.97;;;1.70;;
35606;SDS011;21729;58.392;15.656;2023-02-01T08:51:16;10.02;;;2.05;;
35606;SDS011;21729;58.392;15.656;2023-02-01T08:53:45;9.95;;;1.95;;
35606;SDS011;21729;58.392;15.656;2023-02-01T08:56:15;6.07;;;1.77;;
35606;SDS011;21729;58.392;15.656;2023-02-01T08:58:43;7.57;;;1.60;;
35606;SDS011;21729;58.392;15.656;2023-02-01T09:01:12;6.82;;;1.25;;
35606;SDS011;21729;58.392;15.656;2023-02-01T09:03:40;7.38;;;1.58;;
35606;SDS011;21729;58.392;15.656;2023-02-01T09:06:09;6.72;;;1.38;;
35606;SDS011;21729;58.392;15.656;2023-02-01T09:08:38;7.75;;;1.58;;
35606;SDS011;21729;58.392;15.656;2023-02-01T09:11:06;8.80;;;1.55;;
35606;SDS011;21729;58.392;15.656;2023-02-01T09:13:36;7.47;;;1.58;;
35606;SDS011;21729;58.392;15.656;2023-02-01T09:16:03;7.93;;;1.10;;
35606;SDS011;21729;58.392;15.656;2023-02-01T09:18:31;6.90;;;1.45;;
35606;SDS011;21729;58.392;15.656;2023-02-01T09:20:58;5.68;;;1.23;;
35606;SDS011;21729;58.392;15.656;2023-02-01T09:23:25;7.68;;;1.33;;
35606;SDS011;21729;58.392;15.656;2023-02-01T09:25:52;7.43;;;1.40;;
35606;SDS011;21729;58.392;15.656;2023-02-01T09:28:19;9.05;;;1.63;;
35606;SDS011;21729;58.392;15.656;2023-02-01T09:30:47;8.65;;;1.67;;
35606;SDS011;21729;58.392;15.656;2023-02-01T09:33:14;8.13;;;1.48;;
35606;SDS011;21729;58.392;15.656;2023-02-01T09:35:42;6.68;;;1.60;;
35606;SDS011;21729;58.392;15.656;2023-02-01T09:38:09;8.05;;;1.65;;
35606;SDS011;21729;58.392;15.656;2023-02-01T09:40:39;6.20;;;1.35;;
35606;SDS011;21729;58.392;15.656;2023-02-01T09:43:18;9.45;;;1.85;;
35606;SDS011;21729;58.392;15.656;2023-02-01T09:45:59;6.13;;;1.50;;
35606;SDS011;21729;58.392;15.656;2023-02-01T09:48:38;8.35;;;1.60;;
35606;SDS011;21729;58.392;15.656;2023-02-01T09:51:11;7.68;;;1.92;;
35606;SDS011;21729;58.392;15.656;2023-02-01T09:53:43;8.13;;;1.40;;
35606;SDS011;21729;58.392;15.656;2023-02-01T09:56:13;11.75;;;1.83;;
35606;SDS011;21729;58.392;15.656;2023-02-01T09:58:47;9.00;;;1.40;;
35606;SDS011;21729;58.392;15.656;2023-02-01T10:01:21;10.77;;;1.40;;
35606;SDS011;21729;58.392;15.656;2023-02-01T10:03:50;7.15;;;1.48;;
35606;SDS011;21729;58.392;15.656;2023-02-01T10:06:28;6.63;;;1.63;;
35606;SDS011;21729;58.392;15.656;2023-02-01T10:09:06;9.40;;;1.50;;
35606;SDS011;21729;58.392;15.656;2023-02-01T10:11:42;12.65;;;1.50;;
35606;SDS011;21729;58.392;15.656;2023-02-01T10:14:20;7.47;;;1.42;;
35606;SDS011;21729;58.392;15.656;2023-02-01T10:17:08;8.18;;;1.60;;
35606;SDS011;21729;58.392;15.656;2023-02-01T10:19:47;7.93;;;1.80;;
35606;SDS011;21729;58.392;15.656;2023-02-01T10:22:25;7.82;;;1.60;;
35606;SDS011;21729;58.392;15.656;2023-02-01T10:25:04;5.60;;;1.47;;
35606;SDS011;21729;58.392;15.656;2023-02-01T10:27:39;6.95;;;1.70;;
35606;SDS011;21729;58.392;15.656;2023-02-01T10:30:14;10.15;;;1.48;;
35606;SDS011;21729;58.392;15.656;2023-02-01T10:32:46;8.98;;;1.80;;
35606;SDS011;21729;58.392;15.656;2023-02-01T10:35:17;7.78;;;1.73;;
35606;SDS011;21729;58.392;15.656;2023-02-01T10:37:48;6.57;;;1.70;;
35606;SDS011;21729;58.392;15.656;2023-02-01T10:40:16;9.25;;;1.65;;
35606;SDS011;21729;58.392;15.656;2023-02-01T10:42:46;6.20;;;1.70;;
35606;SDS011;21729;58.392;15.656;2023-02-01T10:45:16;7.67;;;1.70;;
35606;SDS011;21729;58.392;15.656;2023-02-01T10:47:47;6.37;;;1.70;;
35606;SDS011;21729;58.392;15.656;2023-02-01T10:50:17;9.40;;;1.77;;
35606;SDS011;21729;58.392;15.656;2023-02-01T10:52:52;4.85;;;1.70;;
35606;SDS011;21729;58.392;15.656;2023-02-01T10:55:32;4.53;;;1.77;;
35606;SDS011;21729;58.392;15.656;2023-02-01T10:58:01;8.18;;;1.98;;
35606;SDS011;21729;58.392;15.656;2023-02-01T11:00:34;9.77;;;1.93;;
35606;SDS011;21729;58.392;15.656;2023-02-01T11:06:01;7.65;;;2.03;;
35606;SDS011;21729;58.392;15.656;2023-02-01T11:08:41;6.75;;;1.77;;
35606;SDS011;21729;58.392;15.656;2023-02-01T11:11:11;7.88;;;1.83;;
35606;SDS011;21729;58.392;15.656;2023-02-01T11:13:39;8.57;;;2.03;;
35606;SDS011;21729;58.392;15.656;2023-02-01T11:16:06;8.20;;;2.17;;
35606;SDS011;21729;58.392;15.656;2023-02-01T11:18:40;6.15;;;1.88;;
35606;SDS011;21729;58.392;15.656;2023-02-01T11:21:08;8.65;;;2.25;;
35606;SDS011;21729;58.392;15.656;2023-02-01T11:23:39;7.50;;;2.05;;
35606;SDS011;21729;58.392;15.656;2023-02-01T11:26:10;8.02;;;2.25;;
35606;SDS011;21729;58.392;15.656;2023-02-01T11:28:40;9.03;;;1.97;;
35606;SDS011;21729;58.392;15.656;2023-02-01T11:31:14;9.20;;;1.95;;
35606;SDS011;21729;58.392;15.656;2023-02-01T11:33:45;7.72;;;1.90;;
35606;SDS011;21729;58.392;15.656;2023-02-01T11:36:16;9.40;;;2.22;;
35606;SDS011;21729;58.392;15.656;2023-02-01T11:38:46;10.55;;;2.10;;
35606;SDS011;21729;58.392;15.656;2023-02-01T11:41:21;10.37;;;2.47;;
35606;SDS011;21729;58.392;15.656;2023-02-01T11:43:53;9.82;;;1.90;;
35606;SDS011;21729;58.392;15.656;2023-02-01T11:46:24;9.68;;;2.30;;
35606;SDS011;21729;58.392;15.656;2023-02-01T11:48:56;8.68;;;2.10;;
35606;SDS011;21729;58.392;15.656;2023-02-01T11:51:42;6.60;;;1.83;;
35606;SDS011;21729;58.392;15.656;2023-02-01T11:54:23;9.40;;;2.10;;
35606;SDS011;21729;58.392;15.656;2023-02-01T11:57:03;7.60;;;1.90;;
35606;SDS011;21729;58.392;15.656;2023-02-01T11:59:51;13.18;;;2.08;;
35606;SDS011;21729;58.392;15.656;2023-02-01T12:02:35;9.05;;;2.15;;
35606;SDS011;21729;58.392;15.656;2023-02-01T12:08:24;9.70;;;2.08;;
35606;SDS011;21729;58.392;15.656;2023-02-01T12:11:16;8.27;;;1.67;;
35606;SDS011;21729;58.392;15.656;2023-02-01T12:14:02;8.10;;;1.80;;
35606;SDS011;21729;58.392;15.656;2023-02-01T12:16:44;7.70;;;1.75;;
35606;SDS011;21729;58.392;15.656;2023-02-01T12:19:31;6.57;;;1.75;;
35606;SDS011;21729;58.392;15.656;2023-02-01T12:22:18;9.88;;;1.65;;
35606;SDS011;21729;58.392;15.656;2023-02-01T12:25:05;9.48;;;1.58;;
35606;SDS011;21729;58.392;15.656;2023-02-01T12:27:54;11.30;;;2.97;;
35606;SDS011;21729;58.392;15.656;2023-02-01T12:30:39;12.10;;;2.50;;
35606;SDS011;21729;58.392;15.656;2023-02-01T12:33:17;8.98;;;2.38;;
35606;SDS011;21729;58.392;15.656;2023-02-01T12:35:54;6.00;;;2.03;;
35606;SDS011;21729;58.392;15.656;2023-02-01T12:38:41;6.88;;;2.05;;
35606;SDS011;21729;58.392;15.656;2023-02-01T12:44:34;7.28;;;2.08;;
35606;SDS011;21729;58.392;15.656;2023-02-01T12:47:07;8.27;;;2.15;;
35606;SDS011;21729;58.392;15.656;2023-02-01T12:49:45;5.70;;;2.20;;
35606;SDS011;21729;58.392;15.656;2023-02-01T12:52:18;6.32;;;2.38;;
35606;SDS011;21729;58.392;15.656;2023-02-01T12:54:53;5.85;;;2.10;;
35606;SDS011;21729;58.392;15.656;2023-02-01T12:57:25;4.07;;;2.40;;
35606;SDS011;21729;58.392;15.656;2023-02-01T12:59:56;7.05;;;3.17;;
35606;SDS011;21729;58.392;15.656;2023-02-01T13:02:30;3.88;;;2.90;;
35606;SDS011;21729;58.392;15.656;2023-02-01T13:05:13;5.38;;;3.28;;
35606;SDS011;21729;58.392;15.656;2023-02-01T13:07:45;6.60;;;3.90;;
35606;SDS011;21729;58.392;15.656;2023-02-01T13:10:18;9.73;;;5.45;;
35606;SDS011;21729;58.392;15.656;2023-02-01T13:12:53;9.68;;;6.57;;
35606;SDS011;21729;58.392;15.656;2023-02-01T13:15:24;10.88;;;7.30;;
35606;SDS011;21729;58.392;15.656;2023-02-01T13:17:55;10.90;;;7.40;;
35606;SDS011;21729;58.392;15.656;2023-02-01T13:20:28;10.32;;;6.80;;
35606;SDS011;21729;58.392;15.656;2023-02-01T13:22:59;12.48;;;8.10;;
35606;SDS011;21729;58.392;15.656;2023-02-01T13:25:33;11.53;;;8.27;;
35606;SDS011;21729;58.392;15.656;2023-02-01T13:28:05;10.40;;;6.70;;
35606;SDS011;21729;58.392;15.656;2023-02-01T13:30:43;7.32;;;5.60;;
35606;SDS011;21729;58.392;15.656;2023-02-01T13:36:24;5.18;;;3.63;;
35606;SDS011;21729;58.392;15.656;2023-02-01T13:39:20;4.68;;;3.10;;
35606;SDS011;21729;58.392;15.656;2023-02-01T13:42:01;3.30;;;2.67;;
35606;SDS011;21729;58.392;15.656;2023-02-01T13:44:31;4.03;;;2.67;;
35606;SDS011;21729;58.392;15.656;2023-02-01T13:47:08;3.78;;;2.90;;
35606;SDS011;21729;58.392;15.656;2023-02-01T13:49:40;3.22;;;2.70;;
35606;SDS011;21729;58.392;15.656;2023-02-01T13:52:17;2.40;;;2.20;;
35606;SDS011;21729;58.392;15.656;2023-02-01T13:55:23;2.60;;;2.33;;
35606;SDS011;21729;58.392;15.656;2023-02-01T13:58:11;2.80;;;2.40;;
35606;SDS011;21729;58.392;15.656;2023-02-01T14:00:44;3.15;;;2.75;;
35606;SDS011;21729;58.392;15.656;2023-02-01T14:03:15;3.95;;;2.70;;
35606;SDS011;21729;58.392;15.656;2023-02-01T14:05:57;2.63;;;2.40;;
35606;SDS011;21729;58.392;15.656;2023-02-01T14:08:46;3.50;;;2.60;;
35606;SDS011;21729;58.392;15.656;2023-02-01T14:11:39;4.13;;;2.77;;
35606;SDS011;21729;58.392;15.656;2023-02-01T14:23:24;2.40;;;2.20;;
35606;SDS011;21729;58.392;15.656;2023-02-01T14:28:47;3.65;;;2.50;;
35606;SDS011;21729;58.392;15.656;2023-02-01T14:34:24;2.63;;;2.42;;
35606;SDS011;21729;58.392;15.656;2023-02-01T14:36:58;3.13;;;2.22;;
35606;SDS011;21729;58.392;15.656;2023-02-01T14:39:29;2.60;;;2.38;;
35606;SDS011;21729;58.392;15.656;2023-02-01T14:42:01;2.58;;;2.00;;
35606;SDS011;21729;58.392;15.656;2023-02-01T14:44:34;2.40;;;2.15;;
35606;SDS011;21729;58.392;15.656;2023-02-01T14:52:45;1.65;;;1.20;;
35606;SDS011;21729;58.392;15.656;2023-02-01T14:55:15;1.75;;;1.20;;
35606;SDS011;21729;58.392;15.656;2023-02-01T14:57:48;1.42;;;1.00;;
35606;SDS011;21729;58.392;15.656;2023-02-01T15:00:20;1.00;;;1.00;;
35606;SDS011;21729;58.392;15.656;2023-02-01T15:02:49;0.80;;;0.80;;
35606;SDS011;21729;58.392;15.656;2023-02-01T15:05:27;1.15;;;1.00;;
35606;SDS011;21729;58.392;15.656;2023-02-01T15:07:57;0.88;;;0.80;;
35606;SDS011;21729;58.392;15.656;2023-02-01T15:10:29;0.90;;;0.90;;
35606;SDS011;21729;58.392;15.656;2023-02-01T15:12:59;1.40;;;0.80;;
35606;SDS011;21729;58.392;15.656;2023-02-01T15:15:26;2.28;;;1.00;;
35606;SDS011;21729;58.392;15.656;2023-02-01T15:17:58;1.60;;;0.93;;
35606;SDS011;21729;58.392;15.656;2023-02-01T15:20:28;2.00;;;1.00;;
35606;SDS011;21729;58.392;15.656;2023-02-01T15:22:57;0.90;;;0.90;;
35606;SDS011;21729;58.392;15.656;2023-02-01T15:25:26;2.85;;;1.20;;
35606;SDS011;21729;58.392;15.656;2023-02-01T15:27:54;4.38;;;1.27;;
35606;SDS011;21729;58.392;15.656;2023-02-01T15:30:23;1.30;;;1.20;;
35606;SDS011;21729;58.392;15.656;2023-02-01T15:32:51;2.60;;;1.15;;
35606;SDS011;21729;58.392;15.656;2023-02-01T15:35:34;1.37;;;1.20;;
35606;SDS011;21729;58.392;15.656;2023-02-01T15:38:19;2.05;;;1.08;;
35606;SDS011;21729;58.392;15.656;2023-02-01T15:41:02;2.33;;;1.50;;